createdAt,value
2018-11-25T00:00:18.701Z,32.87
2018-11-25T00:02:47.608Z,31.40
2018-11-25T00:05:16.234Z,33.30
2018-11-25T00:07:44.864Z,35.53
2018-11-25T00:10:13.429Z,33.20
2018-11-25T00:12:42.077Z,35.53
2018-11-25T00:15:11.053Z,37.57
2018-11-25T00:17:40.012Z,35.13
2018-11-25T00:20:10.526Z,34.33
2018-11-25T00:22:39.453Z,35.97
2018-11-25T00:25:09.596Z,36.40
2018-11-25T00:27:38.115Z,39.23
2018-11-25T00:30:09.577Z,35.87
2018-11-25T00:32:38.271Z,38.43
2018-11-25T00:35:08.027Z,39.47
2018-11-25T00:37:36.552Z,38.03
2018-11-25T00:40:06.893Z,37.87
2018-11-25T00:42:35.844Z,41.93
2018-11-25T00:45:05.182Z,39.37
2018-11-25T00:47:33.854Z,38.97
2018-11-25T00:50:02.470Z,38.87
2018-11-25T00:52:31.081Z,33.87
2018-11-25T00:54:59.658Z,35.80
2018-11-25T00:57:28.241Z,39.03
2018-11-25T00:59:56.898Z,40.90
2018-11-25T01:02:25.481Z,37.27
2018-11-25T01:04:54.027Z,36.67
2018-11-25T01:07:22.653Z,34.37
2018-11-25T01:09:51.222Z,35.30
2018-11-25T01:12:20.217Z,35.73
2018-11-25T01:14:48.893Z,35.53
2018-11-25T01:17:17.401Z,32.77
2018-11-25T01:19:46.060Z,30.67
2018-11-25T01:22:14.614Z,34.30
2018-11-25T01:24:43.296Z,31.90
2018-11-25T01:27:11.871Z,33.33
2018-11-25T01:29:40.575Z,29.80
2018-11-25T01:32:09.551Z,32.13
2018-11-25T01:34:38.723Z,32.17
2018-11-25T01:37:07.461Z,30.67
2018-11-25T01:39:36.465Z,32.10
2018-11-25T01:42:05.003Z,33.23
2018-11-25T01:44:33.857Z,29.40
2018-11-25T01:47:02.386Z,30.80
2018-11-25T01:49:31.174Z,32.30
2018-11-25T01:51:59.786Z,30.93
2018-11-25T01:54:28.355Z,31.83
2018-11-25T01:56:56.864Z,36.77
2018-11-25T01:59:25.482Z,32.93
2018-11-25T02:01:54.109Z,36.40
2018-11-25T02:04:22.961Z,34.50
2018-11-25T02:06:51.601Z,33.87
2018-11-25T02:09:20.429Z,36.30
2018-11-25T02:11:48.995Z,35.67
2018-11-25T02:14:17.633Z,38.80
2018-11-25T02:16:46.630Z,37.37
2018-11-25T02:19:15.198Z,37.50
2018-11-25T02:21:43.760Z,34.73
2018-11-25T02:24:12.857Z,35.83
2018-11-25T02:26:41.989Z,43.47
2018-11-25T02:29:10.591Z,42.00
2018-11-25T02:31:39.933Z,37.83
2018-11-25T02:34:08.589Z,37.23
2018-11-25T02:36:37.302Z,40.93
2018-11-25T02:39:08.508Z,36.90
2018-11-25T02:41:38.141Z,41.10
2018-11-25T02:44:06.705Z,36.83
2018-11-25T02:46:35.352Z,39.23
2018-11-25T02:49:05.591Z,40.53
2018-11-25T02:51:34.780Z,42.53
2018-11-25T02:54:03.312Z,37.07
2018-11-25T02:56:31.852Z,37.53
2018-11-25T02:59:00.640Z,41.40
2018-11-25T03:01:29.164Z,41.33
2018-11-25T03:03:57.793Z,38.30
2018-11-25T03:06:26.417Z,38.53
2018-11-25T03:08:55.585Z,39.47
2018-11-25T03:11:24.077Z,43.33
2018-11-25T03:13:52.889Z,43.50
2018-11-25T03:16:22.510Z,41.07
2018-11-25T03:18:51.052Z,44.77
2018-11-25T03:21:19.550Z,42.77
2018-11-25T03:23:48.253Z,43.40
2018-11-25T03:26:16.784Z,43.50
2018-11-25T03:28:45.871Z,43.43
2018-11-25T03:31:14.471Z,42.73
2018-11-25T03:33:43.013Z,42.43
2018-11-25T03:36:11.533Z,42.87
2018-11-25T03:38:40.184Z,43.30
2018-11-25T03:41:08.761Z,43.33
2018-11-25T03:43:37.288Z,42.83
2018-11-25T03:46:07.895Z,43.60
2018-11-25T03:48:37.254Z,41.47
2018-11-25T03:51:05.901Z,43.10
2018-11-25T03:53:34.426Z,39.80
2018-11-25T03:56:02.946Z,44.13
2018-11-25T03:58:31.584Z,41.80
2018-11-25T04:01:00.128Z,43.60
2018-11-25T04:03:28.688Z,44.60
2018-11-25T04:05:57.240Z,44.43
2018-11-25T04:08:25.925Z,44.77
2018-11-25T04:10:54.518Z,41.53
2018-11-25T04:13:23.221Z,48.40
2018-11-25T04:15:51.817Z,41.17
2018-11-25T04:18:20.363Z,45.20
2018-11-25T04:20:49.003Z,38.83
2018-11-25T04:23:17.602Z,47.73
2018-11-25T04:25:46.297Z,45.47
2018-11-25T04:28:14.923Z,44.70
2018-11-25T04:30:44.025Z,41.47
2018-11-25T04:33:12.653Z,41.20
2018-11-25T04:35:42.026Z,42.33
2018-11-25T04:38:10.665Z,43.30
2018-11-25T04:40:39.351Z,41.90
2018-11-25T04:43:08.795Z,46.33
2018-11-25T04:45:37.325Z,46.83
2018-11-25T04:48:05.867Z,47.53
2018-11-25T04:50:35.413Z,45.93
2018-11-25T04:53:04.276Z,42.93
2018-11-25T04:55:32.810Z,40.70
2018-11-25T04:58:01.777Z,45.40
2018-11-25T05:00:30.702Z,47.27
2018-11-25T05:02:59.377Z,46.60
2018-11-25T05:05:28.610Z,47.53
2018-11-25T05:07:57.233Z,42.73
2018-11-25T05:10:25.759Z,47.27
2018-11-25T05:12:54.789Z,42.33
2018-11-25T05:15:23.896Z,45.47
2018-11-25T05:17:52.523Z,40.60
2018-11-25T05:20:21.353Z,42.47
2018-11-25T05:22:50.248Z,45.97
2018-11-25T05:25:19.689Z,40.30
2018-11-25T05:27:48.267Z,49.17
2018-11-25T05:30:18.847Z,44.37
2018-11-25T05:32:47.536Z,42.17
2018-11-25T05:35:17.194Z,44.03
2018-11-25T05:37:45.801Z,42.67
2018-11-25T05:40:15.455Z,41.80
2018-11-25T05:42:44.406Z,41.53
2018-11-25T05:45:16.179Z,48.13
2018-11-25T05:47:44.777Z,42.67
2018-11-25T05:50:16.311Z,43.63
2018-11-25T05:52:45.419Z,46.13
2018-11-25T05:55:14.238Z,50.37
2018-11-25T05:57:43.221Z,56.37
2018-11-25T06:00:19.605Z,47.50
2018-11-25T06:02:48.181Z,55.83
2018-11-25T06:05:16.733Z,52.60
2018-11-25T06:07:45.265Z,45.07
2018-11-25T06:10:14.693Z,52.17
2018-11-25T06:12:43.432Z,47.83
2018-11-25T06:15:14.362Z,49.57
2018-11-25T06:17:43.221Z,38.33
2018-11-25T06:20:14.045Z,40.87
2018-11-25T06:22:42.730Z,39.90
2018-11-25T06:25:15.780Z,40.73
2018-11-25T06:27:44.843Z,38.53
2018-11-25T06:30:16.363Z,36.90
2018-11-25T06:32:45.657Z,37.70
2018-11-25T06:35:15.446Z,38.47
2018-11-25T06:37:44.040Z,36.47
2018-11-25T06:40:14.866Z,39.47
2018-11-25T06:42:43.507Z,41.93
2018-11-25T06:45:22.034Z,39.97
2018-11-25T06:47:50.994Z,36.83
2018-11-25T06:50:19.568Z,38.27
2018-11-25T06:52:48.348Z,37.77
2018-11-25T06:55:16.862Z,38.37
2018-11-25T06:57:45.505Z,36.00
2018-11-25T07:00:18.098Z,29.50
2018-11-25T07:02:46.632Z,34.50
2018-11-25T07:05:15.262Z,29.23
2018-11-25T07:07:43.939Z,25.97
2018-11-25T07:10:15.549Z,25.60
2018-11-25T07:12:44.430Z,30.53
2018-11-25T07:15:15.031Z,31.03
2018-11-25T07:17:44.150Z,28.50
2018-11-25T07:20:14.074Z,27.20
2018-11-25T07:22:42.758Z,27.70
2018-11-25T07:25:13.594Z,26.03
2018-11-25T07:27:42.835Z,23.43
2018-11-25T07:30:24.530Z,22.40
2018-11-25T07:32:53.169Z,24.20
2018-11-25T07:35:22.450Z,21.23
2018-11-25T07:37:51.012Z,22.63
2018-11-25T07:40:21.542Z,21.67
2018-11-25T07:42:50.441Z,28.23
2018-11-25T07:45:21.197Z,24.03
2018-11-25T07:47:49.819Z,24.23
2018-11-25T07:50:18.688Z,23.17
2018-11-25T07:52:48.228Z,24.53
2018-11-25T07:55:25.422Z,23.13
2018-11-25T07:57:55.625Z,25.20
2018-11-25T08:00:26.605Z,24.57
2018-11-25T08:02:58.164Z,23.27
2018-11-25T08:05:27.884Z,21.83
2018-11-25T08:07:56.626Z,23.67
2018-11-25T08:10:26.560Z,22.47
2018-11-25T08:12:57.104Z,26.40
2018-11-25T08:15:26.686Z,25.23
2018-11-25T08:17:57.535Z,26.57
2018-11-25T08:20:27.168Z,26.13
2018-11-25T08:22:57.333Z,27.63
2018-11-25T08:25:26.700Z,26.10
2018-11-25T08:27:55.990Z,30.47
2018-11-25T08:30:26.275Z,29.03
2018-11-25T08:32:56.477Z,30.30
2018-11-25T08:35:25.735Z,31.13
2018-11-25T08:37:55.475Z,33.37
2018-11-25T08:40:25.273Z,33.80
2018-11-25T08:42:54.109Z,30.20
2018-11-25T08:45:22.779Z,31.70
2018-11-25T08:47:51.509Z,32.50
2018-11-25T08:50:20.630Z,29.30
2018-11-25T08:52:50.436Z,25.67
2018-11-25T08:55:20.448Z,30.83
2018-11-25T08:57:49.185Z,29.23
2018-11-25T09:00:21.522Z,27.10
2018-11-25T09:02:51.037Z,25.70
2018-11-25T09:05:20.241Z,26.20
2018-11-25T09:07:48.878Z,28.37
2018-11-25T09:10:18.622Z,25.40
2018-11-25T09:12:55.248Z,34.20
2018-11-25T09:15:18.730Z,26.23
2018-11-25T09:17:47.571Z,27.90
2018-11-25T09:20:17.354Z,26.83
2018-11-25T09:22:46.021Z,27.00
2018-11-25T09:25:17.625Z,27.93
2018-11-25T09:27:46.379Z,27.70
2018-11-25T09:30:16.278Z,23.97
2018-11-25T09:32:45.287Z,26.00
2018-11-25T09:35:13.950Z,24.40
2018-11-25T09:37:43.377Z,25.03
2018-11-25T09:40:15.061Z,24.50
2018-11-25T09:42:43.770Z,26.43
2018-11-25T09:45:13.524Z,24.23
2018-11-25T09:47:42.547Z,25.17
2018-11-25T09:50:15.402Z,25.47
2018-11-25T09:52:44.126Z,25.20
2018-11-25T09:55:17.851Z,26.00
2018-11-25T09:57:48.839Z,24.37
2018-11-25T10:00:24.445Z,26.83
2018-11-25T10:02:53.294Z,27.97
2018-11-25T10:05:22.043Z,24.10
2018-11-25T10:07:50.907Z,21.67
2018-11-25T10:10:21.546Z,22.67
2018-11-25T10:12:50.433Z,22.13
2018-11-25T10:15:20.652Z,19.73
2018-11-25T10:17:59.018Z,22.43
2018-11-25T10:20:24.328Z,20.90
2018-11-25T10:22:54.154Z,19.73
2018-11-25T10:25:23.848Z,16.10
2018-11-25T10:27:53.761Z,15.37
2018-11-25T10:30:25.191Z,15.33
2018-11-25T10:33:10.045Z,15.17
2018-11-25T10:35:39.637Z,14.83
2018-11-25T10:38:08.627Z,15.97
2018-11-25T10:40:37.158Z,15.83
2018-11-25T10:43:05.800Z,16.23
2018-11-25T10:45:34.977Z,15.37
2018-11-25T10:48:04.296Z,14.17
2018-11-25T10:50:32.925Z,13.10
2018-11-25T10:53:02.025Z,16.07
2018-11-25T10:55:30.657Z,15.83
2018-11-25T10:57:59.202Z,16.10
2018-11-25T11:00:35.141Z,22.00
2018-11-25T11:03:10.014Z,15.73
2018-11-25T11:05:44.427Z,17.23
2018-11-25T11:08:13.066Z,15.87
2018-11-25T11:10:42.103Z,16.83
2018-11-25T11:13:11.340Z,15.63
2018-11-25T11:15:40.130Z,14.20
2018-11-25T11:18:09.050Z,18.23
2018-11-25T11:20:37.612Z,16.40
2018-11-25T11:23:06.915Z,17.10
2018-11-25T11:25:35.557Z,16.27
2018-11-25T11:28:04.767Z,16.03
2018-11-25T11:30:33.998Z,15.67
2018-11-25T11:33:02.584Z,15.07
2018-11-25T11:35:31.578Z,20.77
2018-11-25T11:38:00.259Z,16.27
2018-11-25T11:40:28.968Z,19.27
2018-11-25T11:42:57.584Z,16.60
2018-11-25T11:45:26.292Z,14.80
2018-11-25T11:47:55.685Z,18.07
2018-11-25T11:50:42.886Z,20.17
2018-11-25T11:53:23.276Z,18.00
2018-11-25T11:55:58.999Z,20.80
2018-11-25T11:58:33.548Z,16.53
2018-11-25T12:01:11.390Z,17.07
2018-11-25T12:03:44.024Z,18.87
2018-11-25T12:06:22.262Z,17.67
2018-11-25T12:08:55.989Z,17.23
2018-11-25T12:11:32.542Z,17.03
2018-11-25T12:14:07.446Z,17.47
2018-11-25T12:16:38.750Z,19.20
2018-11-25T12:19:10.270Z,17.90
2018-11-25T12:21:39.381Z,15.30
2018-11-25T12:24:10.121Z,18.73
2018-11-25T12:26:39.832Z,17.13
2018-11-25T12:29:10.597Z,15.93
2018-11-25T12:31:40.623Z,15.90
2018-11-25T12:34:10.980Z,18.47
2018-11-25T12:36:43.617Z,15.37
2018-11-25T12:39:13.399Z,14.83
2018-11-25T12:41:43.625Z,13.40
2018-11-25T12:44:13.419Z,17.00
2018-11-25T12:46:43.347Z,17.33
2018-11-25T12:49:12.865Z,16.60
2018-11-25T12:51:42.357Z,15.70
2018-11-25T12:54:13.034Z,18.93
2018-11-25T12:56:44.036Z,16.97
2018-11-25T12:59:12.393Z,18.57
2018-11-25T13:01:42.557Z,15.17
2018-11-25T13:04:12.415Z,15.07
2018-11-25T13:06:42.029Z,15.40
2018-11-25T13:09:12.411Z,16.27
2018-11-25T13:11:42.398Z,13.03
2018-11-25T13:14:14.545Z,18.27
2018-11-25T13:16:46.138Z,17.27
2018-11-25T13:19:17.294Z,15.23
2018-11-25T13:21:48.085Z,14.27
2018-11-25T13:24:18.162Z,18.00
2018-11-25T13:26:48.929Z,16.60
2018-11-25T13:29:20.740Z,17.57
2018-11-25T13:31:52.023Z,11.20
2018-11-25T13:34:22.508Z,12.87
2018-11-25T13:36:52.907Z,12.70
2018-11-25T13:39:22.729Z,15.47
2018-11-25T13:41:52.705Z,12.80
2018-11-25T13:44:24.426Z,13.50
2018-11-25T13:47:01.470Z,13.43
2018-11-25T13:49:37.445Z,12.60
2018-11-25T13:52:13.299Z,14.27
2018-11-25T13:54:50.261Z,15.13
2018-11-25T13:57:26.291Z,14.67
2018-11-25T13:59:56.060Z,16.27
2018-11-25T14:02:27.595Z,14.33
2018-11-25T14:04:57.175Z,14.10
2018-11-25T14:07:26.346Z,14.00
2018-11-25T14:09:56.880Z,13.27
2018-11-25T14:12:26.603Z,14.43
2018-11-25T14:14:57.106Z,12.50
2018-11-25T14:17:26.777Z,14.30
2018-11-25T14:19:57.461Z,14.57
2018-11-25T14:22:28.664Z,14.93
2018-11-25T14:25:01.618Z,15.07
2018-11-25T14:27:32.111Z,13.97
2018-11-25T14:30:03.392Z,16.50
2018-11-25T14:32:37.443Z,17.10
2018-11-25T14:35:11.894Z,16.33
2018-11-25T14:37:42.156Z,19.27
2018-11-25T14:40:15.503Z,17.47
2018-11-25T14:42:46.999Z,17.63
2018-11-25T14:45:19.874Z,18.77
2018-11-25T14:47:50.337Z,18.47
2018-11-25T14:50:23.069Z,17.83
2018-11-25T14:52:53.339Z,20.23
2018-11-25T14:55:23.371Z,20.80
2018-11-25T14:57:53.547Z,17.83
2018-11-25T15:00:26.352Z,19.83
2018-11-25T15:03:02.380Z,20.77
2018-11-25T15:05:52.614Z,20.47
2018-11-25T15:08:23.851Z,19.83
2018-11-25T15:10:54.335Z,21.00
2018-11-25T15:13:24.520Z,20.23
2018-11-25T15:15:54.915Z,18.30
2018-11-25T15:18:24.072Z,18.33
2018-11-25T15:20:55.286Z,21.43
2018-11-25T15:23:25.090Z,15.30
2018-11-25T15:25:56.206Z,19.67
2018-11-25T15:28:27.581Z,17.47
2018-11-25T15:30:56.877Z,19.47
2018-11-25T15:33:27.249Z,19.70
2018-11-25T15:35:56.405Z,16.63
2018-11-25T15:38:27.752Z,16.53
2018-11-25T15:40:58.866Z,16.43
2018-11-25T15:43:29.538Z,15.80
2018-11-25T15:46:03.206Z,15.93
2018-11-25T15:48:34.142Z,13.00
2018-11-25T15:51:06.431Z,13.17
2018-11-25T15:53:35.111Z,13.93
2018-11-25T15:56:07.077Z,18.40
2018-11-25T15:58:35.706Z,15.77
2018-11-25T16:01:04.328Z,15.47
2018-11-25T16:03:32.915Z,21.50
2018-11-25T16:06:06.378Z,13.97
2018-11-25T16:08:38.209Z,13.57
2018-11-25T16:11:04.220Z,16.00
2018-11-25T16:13:32.762Z,14.90
2018-11-25T16:16:01.670Z,14.87
2018-11-25T16:18:30.310Z,12.10
2018-11-25T16:20:58.834Z,11.33
2018-11-25T16:23:28.221Z,13.33
2018-11-25T16:25:58.961Z,14.07
2018-11-25T16:28:35.065Z,11.83
2018-11-25T16:31:03.675Z,12.77
2018-11-25T16:33:33.398Z,14.07
2018-11-25T16:36:02.023Z,14.60
2018-11-25T16:38:30.639Z,12.77
2018-11-25T16:40:59.821Z,13.23
2018-11-25T16:43:28.895Z,13.17
2018-11-25T16:45:57.601Z,13.30
2018-11-25T16:48:28.015Z,12.67
2018-11-25T16:50:57.706Z,12.07
2018-11-25T16:53:26.342Z,12.07
2018-11-25T16:55:55.533Z,10.07
2018-11-25T16:58:24.229Z,10.50
2018-11-25T17:00:53.338Z,10.70
2018-11-25T17:03:22.747Z,10.03
2018-11-25T17:05:52.962Z,11.00
2018-11-25T17:08:29.399Z,11.17
2018-11-25T17:10:59.308Z,10.07
2018-11-25T17:13:27.873Z,9.40
2018-11-25T17:15:56.482Z,11.17
2018-11-25T17:18:25.025Z,10.23
2018-11-25T17:20:53.600Z,11.00
2018-11-25T17:23:22.142Z,10.87
2018-11-25T17:25:50.839Z,10.97
2018-11-25T17:28:19.442Z,9.87
2018-11-25T17:30:48.029Z,11.03
2018-11-25T17:33:16.657Z,10.13
2018-11-25T17:35:45.381Z,9.10
2018-11-25T17:38:13.999Z,9.63
2018-11-25T17:40:42.613Z,12.50
2018-11-25T17:43:13.109Z,9.97
2018-11-25T17:45:41.727Z,11.93
2018-11-25T17:48:11.911Z,11.60
2018-11-25T17:50:40.585Z,10.90
2018-11-25T17:53:10.503Z,14.03
2018-11-25T17:55:40.252Z,11.80
2018-11-25T17:58:09.660Z,11.40
2018-11-25T18:00:42.631Z,11.97
2018-11-25T18:03:14.237Z,10.87
2018-11-25T18:05:42.884Z,9.80
2018-11-25T18:08:12.034Z,13.87
2018-11-25T18:10:40.724Z,12.57
2018-11-25T18:13:09.438Z,12.03
2018-11-25T18:15:39.257Z,12.77
2018-11-25T18:18:14.571Z,16.13
2018-11-25T18:20:49.215Z,12.30
2018-11-25T18:23:17.786Z,11.10
2018-11-25T18:25:47.566Z,14.57
2018-11-25T18:28:16.475Z,13.13
2018-11-25T18:30:46.574Z,13.07
2018-11-25T18:33:15.163Z,13.87
2018-11-25T18:35:44.241Z,14.53
2018-11-25T18:38:12.985Z,15.63
2018-11-25T18:40:41.662Z,16.23
2018-11-25T18:43:10.314Z,13.73
2018-11-25T18:45:39.171Z,13.50
2018-11-25T18:48:09.749Z,12.20
2018-11-25T18:50:56.961Z,14.00
2018-11-25T18:53:25.666Z,11.00
2018-11-25T18:55:53.256Z,11.97
2018-11-25T18:58:27.114Z,12.30
2018-11-25T19:01:04.904Z,10.27
2018-11-25T19:03:33.934Z,9.60
2018-11-25T19:06:02.697Z,13.10
2018-11-25T19:08:31.358Z,12.93
2018-11-25T19:11:04.672Z,11.73
2018-11-25T19:13:33.484Z,10.60
2018-11-25T19:16:11.079Z,9.73
2018-11-25T19:18:39.943Z,9.67
2018-11-25T19:21:08.842Z,7.40
2018-11-25T19:23:42.117Z,10.57
2018-11-25T19:26:17.243Z,10.27
2018-11-25T19:34:48.057Z,8.93
2018-11-25T19:37:38.913Z,9.10
2018-11-25T19:40:27.643Z,9.70
2018-11-25T19:42:57.890Z,11.73
2018-11-25T19:45:29.707Z,10.70
2018-11-25T19:48:01.171Z,12.20
2018-11-25T19:50:34.313Z,11.47
2018-11-25T19:53:05.745Z,9.57
2018-11-25T19:55:36.848Z,11.93
2018-11-25T19:58:08.159Z,11.30
2018-11-25T20:00:40.192Z,10.93
2018-11-25T20:03:11.440Z,10.97
2018-11-25T20:05:47.749Z,10.07
2018-11-25T20:08:18.961Z,9.60
2018-11-25T20:10:51.850Z,9.50
2018-11-25T20:13:21.452Z,9.70
2018-11-25T20:15:50.164Z,10.63
2018-11-25T20:18:24.642Z,9.53
2018-11-25T20:20:59.417Z,9.60
2018-11-25T20:23:28.549Z,10.83
2018-11-25T20:25:57.181Z,10.13
2018-11-25T20:28:27.837Z,9.70
2018-11-25T20:30:57.137Z,11.47
2018-11-25T20:33:32.426Z,9.80
2018-11-25T20:36:02.826Z,8.80
2018-11-25T20:38:37.175Z,7.93
2018-11-25T20:41:08.850Z,8.57
2018-11-25T20:43:37.752Z,8.57
2018-11-25T20:46:12.501Z,10.40
2018-11-25T20:48:41.707Z,8.43
2018-11-25T20:51:11.378Z,6.87
2018-11-25T20:53:45.648Z,7.63
2018-11-25T20:56:14.654Z,7.20
2018-11-25T20:58:43.307Z,7.60
2018-11-25T21:01:11.913Z,6.87
2018-11-25T21:03:40.535Z,7.17
2018-11-25T21:06:09.168Z,8.97
2018-11-25T21:08:37.867Z,7.33
2018-11-25T21:11:06.797Z,6.77
2018-11-25T21:13:35.344Z,7.73
2018-11-25T21:16:04.130Z,7.07
2018-11-25T21:18:32.649Z,6.60
2018-11-25T21:21:01.172Z,7.50
2018-11-25T21:23:30.043Z,7.27
2018-11-25T21:26:00.481Z,7.43
2018-11-25T21:28:29.184Z,7.50
2018-11-25T21:30:57.798Z,9.50
2018-11-25T21:33:26.758Z,7.90
2018-11-25T21:35:56.160Z,7.97
2018-11-25T21:38:25.166Z,6.67
2018-11-25T21:40:54.325Z,6.77
2018-11-25T21:43:23.310Z,6.57
2018-11-25T21:45:52.179Z,7.50
2018-11-25T21:48:21.718Z,7.20
2018-11-25T21:50:50.593Z,7.80
2018-11-25T21:53:19.367Z,7.60
2018-11-25T21:58:17.529Z,7.07
2018-11-25T22:00:46.482Z,8.33
2018-11-25T22:03:16.093Z,11.23
2018-11-25T22:05:44.861Z,10.33
2018-11-25T22:08:13.913Z,9.23
2018-11-25T22:10:42.947Z,9.20
2018-11-25T22:13:12.374Z,12.23
2018-11-25T22:15:42.238Z,12.03
2018-11-25T22:18:11.003Z,11.93
2018-11-25T22:20:40.021Z,11.50
2018-11-25T22:23:08.858Z,10.97
2018-11-25T22:25:37.628Z,14.63
2018-11-25T22:28:06.832Z,12.73
2018-11-25T22:30:35.508Z,13.97
2018-11-25T22:33:04.305Z,12.63
2018-11-25T22:35:34.025Z,14.50
2018-11-25T22:38:02.801Z,14.73
2018-11-25T22:40:31.476Z,13.57
2018-11-25T22:43:00.165Z,14.17
2018-11-25T22:45:28.771Z,12.17
2018-11-25T22:47:57.501Z,15.03
2018-11-25T22:50:27.895Z,13.23
2018-11-25T22:52:56.847Z,14.50
2018-11-25T22:55:26.936Z,16.00
2018-11-25T22:57:55.918Z,13.73
2018-11-25T23:00:31.143Z,17.60
2018-11-25T23:02:59.713Z,14.13
2018-11-25T23:05:39.469Z,14.13
2018-11-25T23:08:08.023Z,15.50
2018-11-25T23:10:38.868Z,15.37
2018-11-25T23:13:09.401Z,14.33
2018-11-25T23:15:38.521Z,17.43
2018-11-25T23:18:09.266Z,16.13
2018-11-25T23:20:38.255Z,13.73
2018-11-25T23:23:08.208Z,15.73
2018-11-25T23:25:37.149Z,14.87
2018-11-25T23:28:06.574Z,14.73
2018-11-25T23:30:35.310Z,14.80
2018-11-25T23:33:04.780Z,14.60
2018-11-25T23:35:34.484Z,17.13
2018-11-25T23:38:03.020Z,17.50
2018-11-25T23:40:31.597Z,16.70
2018-11-25T23:43:00.182Z,16.20
2018-11-25T23:45:28.741Z,13.97
2018-11-25T23:47:57.397Z,18.13
2018-11-25T23:50:26.011Z,16.67
2018-11-25T23:52:54.694Z,18.30
2018-11-25T23:55:23.233Z,17.20
2018-11-25T23:57:51.778Z,16.33
